sensor_id;sensor_type;location;lat;lon;timestamp;P1;durP1;ratioP1;P2;durP2;ratioP2
6821;SDS011;3449;48.728;8.968;2023-02-15T00:02:26;42.30;;;18.07;;
6821;SDS011;3449;48.728;8.968;2023-02-15T00:04:53;45.87;;;20.20;;
6821;SDS011;3449;48.728;8.968;2023-02-15T00:07:22;46.00;;;19.50;;
6821;SDS011;3449;48.728;8.968;2023-02-15T00:09:49;44.37;;;18.97;;
6821;SDS011;3449;48.728;8.968;2023-02-15T00:12:16;51.50;;;18.83;;
6821;SDS011;3449;48.728;8.968;2023-02-15T00:14:43;47.03;;;19.27;;
6821;SDS011;3449;48.728;8.968;2023-02-15T00:17:10;42.13;;;19.13;;
6821;SDS011;3449;48.728;8.968;2023-02-15T00:19:37;46.43;;;19.67;;
6821;SDS011;3449;48.728;8.968;2023-02-15T00:22:04;48.87;;;20.10;;
6821;SDS011;3449;48.728;8.968;2023-02-15T00:24:33;44.70;;;19.10;;
6821;SDS011;3449;48.728;8.968;2023-02-15T00:27:00;41.57;;;18.37;;
6821;SDS011;3449;48.728;8.968;2023-02-15T00:29:27;41.83;;;19.33;;
6821;SDS011;3449;48.728;8.968;2023-02-15T00:31:54;48.43;;;19.90;;
6821;SDS011;3449;48.728;8.968;2023-02-15T00:34:21;47.43;;;20.23;;
6821;SDS011;3449;48.728;8.968;2023-02-15T00:36:50;57.67;;;21.83;;
6821;SDS011;3449;48.728;8.968;2023-02-15T00:39:17;53.50;;;21.00;;
6821;SDS011;3449;48.728;8.968;2023-02-15T00:41:46;56.43;;;23.70;;
6821;SDS011;3449;48.728;8.968;2023-02-15T00:44:13;67.90;;;26.77;;
6821;SDS011;3449;48.728;8.968;2023-02-15T00:46:40;72.73;;;30.90;;
6821;SDS011;3449;48.728;8.968;2023-02-15T00:49:07;59.93;;;25.27;;
6821;SDS011;3449;48.728;8.968;2023-02-15T00:51:34;53.40;;;23.23;;
6821;SDS011;3449;48.728;8.968;2023-02-15T00:54:01;47.20;;;20.83;;
6821;SDS011;3449;48.728;8.968;2023-02-15T00:56:28;46.73;;;21.27;;
6821;SDS011;3449;48.728;8.968;2023-02-15T00:58:56;52.40;;;20.30;;
6821;SDS011;3449;48.728;8.968;2023-02-15T01:01:23;33.93;;;16.90;;
6821;SDS011;3449;48.728;8.968;2023-02-15T01:03:50;45.27;;;19.97;;
6821;SDS011;3449;48.728;8.968;2023-02-15T01:06:17;40.30;;;18.70;;
6821;SDS011;3449;48.728;8.968;2023-02-15T01:08:45;43.13;;;17.60;;
6821;SDS011;3449;48.728;8.968;2023-02-15T01:11:14;38.10;;;17.80;;
6821;SDS011;3449;48.728;8.968;2023-02-15T01:13:47;46.13;;;17.73;;
6821;SDS011;3449;48.728;8.968;2023-02-15T01:16:15;39.03;;;16.00;;
6821;SDS011;3449;48.728;8.968;2023-02-15T01:18:43;35.70;;;16.70;;
6821;SDS011;3449;48.728;8.968;2023-02-15T01:21:10;38.23;;;16.37;;
6821;SDS011;3449;48.728;8.968;2023-02-15T01:23:39;39.10;;;16.90;;
6821;SDS011;3449;48.728;8.968;2023-02-15T01:26:06;41.77;;;17.30;;
6821;SDS011;3449;48.728;8.968;2023-02-15T01:28:33;36.87;;;16.67;;
6821;SDS011;3449;48.728;8.968;2023-02-15T01:31:04;33.00;;;15.77;;
6821;SDS011;3449;48.728;8.968;2023-02-15T01:33:32;37.10;;;16.07;;
6821;SDS011;3449;48.728;8.968;2023-02-15T01:36:00;39.97;;;17.40;;
6821;SDS011;3449;48.728;8.968;2023-02-15T01:38:28;32.10;;;14.80;;
6821;SDS011;3449;48.728;8.968;2023-02-15T01:40:54;41.23;;;16.93;;
6821;SDS011;3449;48.728;8.968;2023-02-15T01:43:43;38.60;;;15.50;;
6821;SDS011;3449;48.728;8.968;2023-02-15T01:46:12;39.90;;;16.00;;
6821;SDS011;3449;48.728;8.968;2023-02-15T01:48:42;31.33;;;15.10;;
6821;SDS011;3449;48.728;8.968;2023-02-15T01:51:13;40.30;;;17.30;;
6821;SDS011;3449;48.728;8.968;2023-02-15T01:53:43;31.47;;;14.83;;
6821;SDS011;3449;48.728;8.968;2023-02-15T01:56:13;36.83;;;14.70;;
6821;SDS011;3449;48.728;8.968;2023-02-15T01:58:43;45.30;;;15.23;;
6821;SDS011;3449;48.728;8.968;2023-02-15T02:01:12;40.80;;;16.10;;
6821;SDS011;3449;48.728;8.968;2023-02-15T02:03:43;33.07;;;14.70;;
6821;SDS011;3449;48.728;8.968;2023-02-15T02:06:19;35.83;;;15.73;;
6821;SDS011;3449;48.728;8.968;2023-02-15T02:08:47;44.70;;;16.80;;
6821;SDS011;3449;48.728;8.968;2023-02-15T02:11:14;36.50;;;15.90;;
6821;SDS011;3449;48.728;8.968;2023-02-15T02:13:42;34.97;;;15.27;;
6821;SDS011;3449;48.728;8.968;2023-02-15T02:16:11;36.03;;;16.80;;
6821;SDS011;3449;48.728;8.968;2023-02-15T02:18:46;38.43;;;16.50;;
6821;SDS011;3449;48.728;8.968;2023-02-15T02:24:36;35.13;;;15.60;;
6821;SDS011;3449;48.728;8.968;2023-02-15T02:27:37;39.57;;;17.40;;
6821;SDS011;3449;48.728;8.968;2023-02-15T02:33:19;39.60;;;15.10;;
6821;SDS011;3449;48.728;8.968;2023-02-15T02:35:56;53.07;;;15.40;;
6821;SDS011;3449;48.728;8.968;2023-02-15T02:38:33;40.23;;;17.17;;
6821;SDS011;3449;48.728;8.968;2023-02-15T02:41:12;32.87;;;14.53;;
6821;SDS011;3449;48.728;8.968;2023-02-15T02:43:46;34.27;;;15.40;;
6821;SDS011;3449;48.728;8.968;2023-02-15T02:46:19;39.03;;;17.50;;
6821;SDS011;3449;48.728;8.968;2023-02-15T02:48:49;38.13;;;17.57;;
6821;SDS011;3449;48.728;8.968;2023-02-15T02:51:16;35.50;;;14.67;;
6821;SDS011;3449;48.728;8.968;2023-02-15T02:53:47;32.50;;;14.70;;
6821;SDS011;3449;48.728;8.968;2023-02-15T02:56:20;33.17;;;15.37;;
6821;SDS011;3449;48.728;8.968;2023-02-15T02:58:50;37.13;;;14.90;;
6821;SDS011;3449;48.728;8.968;2023-02-15T03:01:23;31.17;;;14.10;;
6821;SDS011;3449;48.728;8.968;2023-02-15T03:03:54;36.53;;;15.53;;
6821;SDS011;3449;48.728;8.968;2023-02-15T03:06:27;36.97;;;15.27;;
6821;SDS011;3449;48.728;8.968;2023-02-15T03:09:00;33.80;;;14.33;;
6821;SDS011;3449;48.728;8.968;2023-02-15T03:11:31;31.23;;;14.97;;
6821;SDS011;3449;48.728;8.968;2023-02-15T03:13:59;35.67;;;14.30;;
6821;SDS011;3449;48.728;8.968;2023-02-15T03:16:25;40.47;;;15.90;;
6821;SDS011;3449;48.728;8.968;2023-02-15T03:18:55;37.53;;;14.50;;
6821;SDS011;3449;48.728;8.968;2023-02-15T03:21:28;35.20;;;14.93;;
6821;SDS011;3449;48.728;8.968;2023-02-15T03:23:59;41.07;;;16.33;;
6821;SDS011;3449;48.728;8.968;2023-02-15T03:26:30;35.87;;;14.37;;
6821;SDS011;3449;48.728;8.968;2023-02-15T03:29:00;43.87;;;15.23;;
6821;SDS011;3449;48.728;8.968;2023-02-15T03:31:31;33.67;;;14.73;;
6821;SDS011;3449;48.728;8.968;2023-02-15T03:34:04;34.73;;;14.60;;
6821;SDS011;3449;48.728;8.968;2023-02-15T03:36:36;34.57;;;15.13;;
6821;SDS011;3449;48.728;8.968;2023-02-15T03:39:10;34.80;;;14.20;;
6821;SDS011;3449;48.728;8.968;2023-02-15T03:41:44;33.60;;;14.90;;
6821;SDS011;3449;48.728;8.968;2023-02-15T03:44:16;39.63;;;15.50;;
6821;SDS011;3449;48.728;8.968;2023-02-15T03:46:51;28.43;;;13.73;;
6821;SDS011;3449;48.728;8.968;2023-02-15T03:49:24;32.60;;;14.70;;
6821;SDS011;3449;48.728;8.968;2023-02-15T03:51:55;36.83;;;15.13;;
6821;SDS011;3449;48.728;8.968;2023-02-15T03:54:26;27.77;;;13.10;;
6821;SDS011;3449;48.728;8.968;2023-02-15T03:57:09;31.70;;;15.20;;
6821;SDS011;3449;48.728;8.968;2023-02-15T03:59:56;32.03;;;14.47;;
6821;SDS011;3449;48.728;8.968;2023-02-15T04:02:59;39.17;;;13.33;;
6821;SDS011;3449;48.728;8.968;2023-02-15T04:05:40;52.03;;;19.90;;
6821;SDS011;3449;48.728;8.968;2023-02-15T04:08:08;46.37;;;19.00;;
6821;SDS011;3449;48.728;8.968;2023-02-15T04:10:36;39.77;;;16.43;;
6821;SDS011;3449;48.728;8.968;2023-02-15T04:13:21;32.27;;;15.30;;
6821;SDS011;3449;48.728;8.968;2023-02-15T04:15:49;39.93;;;14.37;;
6821;SDS011;3449;48.728;8.968;2023-02-15T04:18:31;34.07;;;14.73;;
6821;SDS011;3449;48.728;8.968;2023-02-15T04:21:18;35.73;;;16.20;;
6821;SDS011;3449;48.728;8.968;2023-02-15T04:24:04;36.90;;;15.17;;
6821;SDS011;3449;48.728;8.968;2023-02-15T04:26:48;38.37;;;16.23;;
6821;SDS011;3449;48.728;8.968;2023-02-15T04:29:17;32.93;;;15.47;;
6821;SDS011;3449;48.728;8.968;2023-02-15T04:31:44;38.60;;;15.67;;
6821;SDS011;3449;48.728;8.968;2023-02-15T04:34:11;40.37;;;14.67;;
6821;SDS011;3449;48.728;8.968;2023-02-15T04:36:40;44.47;;;17.77;;
6821;SDS011;3449;48.728;8.968;2023-02-15T04:39:07;32.10;;;15.23;;
6821;SDS011;3449;48.728;8.968;2023-02-15T04:41:35;29.20;;;14.37;;
6821;SDS011;3449;48.728;8.968;2023-02-15T04:44:02;43.23;;;16.77;;
6821;SDS011;3449;48.728;8.968;2023-02-15T04:46:30;32.93;;;16.07;;
6821;SDS011;3449;48.728;8.968;2023-02-15T04:48:57;31.03;;;12.70;;
6821;SDS011;3449;48.728;8.968;2023-02-15T04:51:24;28.60;;;14.50;;
6821;SDS011;3449;48.728;8.968;2023-02-15T04:53:52;29.27;;;14.17;;
6821;SDS011;3449;48.728;8.968;2023-02-15T04:56:19;38.30;;;14.40;;
6821;SDS011;3449;48.728;8.968;2023-02-15T04:58:47;32.47;;;13.70;;
6821;SDS011;3449;48.728;8.968;2023-02-15T05:01:14;26.90;;;13.30;;
6821;SDS011;3449;48.728;8.968;2023-02-15T05:03:41;33.77;;;14.00;;
6821;SDS011;3449;48.728;8.968;2023-02-15T05:06:08;33.63;;;14.17;;
6821;SDS011;3449;48.728;8.968;2023-02-15T05:08:35;38.47;;;13.23;;
6821;SDS011;3449;48.728;8.968;2023-02-15T05:11:03;35.87;;;14.20;;
6821;SDS011;3449;48.728;8.968;2023-02-15T05:13:30;32.73;;;15.00;;
6821;SDS011;3449;48.728;8.968;2023-02-15T05:15:56;31.60;;;14.27;;
6821;SDS011;3449;48.728;8.968;2023-02-15T05:18:23;27.87;;;12.00;;
6821;SDS011;3449;48.728;8.968;2023-02-15T05:20:50;28.87;;;12.97;;
6821;SDS011;3449;48.728;8.968;2023-02-15T05:23:17;31.07;;;13.70;;
6821;SDS011;3449;48.728;8.968;2023-02-15T05:25:46;29.20;;;13.97;;
6821;SDS011;3449;48.728;8.968;2023-02-15T05:28:33;30.00;;;13.37;;
6821;SDS011;3449;48.728;8.968;2023-02-15T05:31:02;27.40;;;13.23;;
6821;SDS011;3449;48.728;8.968;2023-02-15T05:33:31;31.50;;;12.97;;
6821;SDS011;3449;48.728;8.968;2023-02-15T05:35:58;27.10;;;13.00;;
6821;SDS011;3449;48.728;8.968;2023-02-15T05:38:25;30.40;;;13.20;;
6821;SDS011;3449;48.728;8.968;2023-02-15T05:40:52;24.63;;;12.13;;
6821;SDS011;3449;48.728;8.968;2023-02-15T05:43:19;23.97;;;12.07;;
6821;SDS011;3449;48.728;8.968;2023-02-15T05:45:48;31.30;;;13.70;;
6821;SDS011;3449;48.728;8.968;2023-02-15T05:48:16;33.37;;;13.50;;
6821;SDS011;3449;48.728;8.968;2023-02-15T05:50:44;35.67;;;14.90;;
6821;SDS011;3449;48.728;8.968;2023-02-15T05:53:11;33.97;;;14.63;;
6821;SDS011;3449;48.728;8.968;2023-02-15T05:55:38;30.33;;;14.70;;
6821;SDS011;3449;48.728;8.968;2023-02-15T05:58:05;28.43;;;13.50;;
6821;SDS011;3449;48.728;8.968;2023-02-15T06:00:33;27.23;;;12.80;;
6821;SDS011;3449;48.728;8.968;2023-02-15T06:03:01;28.10;;;14.17;;
6821;SDS011;3449;48.728;8.968;2023-02-15T06:05:28;33.83;;;12.20;;
6821;SDS011;3449;48.728;8.968;2023-02-15T06:07:55;24.70;;;12.70;;
6821;SDS011;3449;48.728;8.968;2023-02-15T06:10:22;25.93;;;12.13;;
6821;SDS011;3449;48.728;8.968;2023-02-15T06:12:49;30.60;;;12.77;;
6821;SDS011;3449;48.728;8.968;2023-02-15T06:15:15;25.47;;;12.40;;
6821;SDS011;3449;48.728;8.968;2023-02-15T06:17:42;30.67;;;12.87;;
6821;SDS011;3449;48.728;8.968;2023-02-15T06:20:11;31.23;;;14.67;;
6821;SDS011;3449;48.728;8.968;2023-02-15T06:22:38;33.73;;;13.20;;
6821;SDS011;3449;48.728;8.968;2023-02-15T06:25:05;28.53;;;12.67;;
6821;SDS011;3449;48.728;8.968;2023-02-15T06:27:34;28.50;;;13.17;;
6821;SDS011;3449;48.728;8.968;2023-02-15T06:30:02;27.83;;;12.93;;
6821;SDS011;3449;48.728;8.968;2023-02-15T06:32:29;31.73;;;13.20;;
6821;SDS011;3449;48.728;8.968;2023-02-15T06:34:56;28.10;;;13.40;;
6821;SDS011;3449;48.728;8.968;2023-02-15T06:37:24;29.17;;;10.80;;
6821;SDS011;3449;48.728;8.968;2023-02-15T06:39:51;24.67;;;11.57;;
6821;SDS011;3449;48.728;8.968;2023-02-15T06:42:18;26.27;;;12.43;;
6821;SDS011;3449;48.728;8.968;2023-02-15T06:44:45;26.47;;;12.47;;
6821;SDS011;3449;48.728;8.968;2023-02-15T06:47:12;24.90;;;11.43;;
6821;SDS011;3449;48.728;8.968;2023-02-15T06:49:38;30.77;;;13.87;;
6821;SDS011;3449;48.728;8.968;2023-02-15T06:52:05;22.80;;;11.00;;
6821;SDS011;3449;48.728;8.968;2023-02-15T06:54:33;27.07;;;12.20;;
6821;SDS011;3449;48.728;8.968;2023-02-15T06:57:00;30.07;;;11.67;;
6821;SDS011;3449;48.728;8.968;2023-02-15T06:59:27;23.57;;;11.57;;
6821;SDS011;3449;48.728;8.968;2023-02-15T07:01:54;26.53;;;12.00;;
6821;SDS011;3449;48.728;8.968;2023-02-15T07:04:21;21.70;;;11.57;;
6821;SDS011;3449;48.728;8.968;2023-02-15T07:06:48;27.87;;;11.30;;
6821;SDS011;3449;48.728;8.968;2023-02-15T07:09:15;29.60;;;13.13;;
6821;SDS011;3449;48.728;8.968;2023-02-15T07:11:43;27.57;;;12.77;;
6821;SDS011;3449;48.728;8.968;2023-02-15T07:14:27;24.50;;;11.10;;
6821;SDS011;3449;48.728;8.968;2023-02-15T07:16:54;24.50;;;12.23;;
6821;SDS011;3449;48.728;8.968;2023-02-15T07:19:21;36.03;;;11.90;;
6821;SDS011;3449;48.728;8.968;2023-02-15T07:21:48;24.53;;;12.37;;
6821;SDS011;3449;48.728;8.968;2023-02-15T07:24:15;27.17;;;14.20;;
6821;SDS011;3449;48.728;8.968;2023-02-15T07:26:43;27.93;;;13.33;;
6821;SDS011;3449;48.728;8.968;2023-02-15T07:29:10;32.80;;;14.47;;
6821;SDS011;3449;48.728;8.968;2023-02-15T07:31:37;33.83;;;13.60;;
6821;SDS011;3449;48.728;8.968;2023-02-15T07:34:05;32.50;;;14.90;;
6821;SDS011;3449;48.728;8.968;2023-02-15T07:36:32;32.10;;;13.90;;
6821;SDS011;3449;48.728;8.968;2023-02-15T07:38:59;29.07;;;13.10;;
6821;SDS011;3449;48.728;8.968;2023-02-15T07:41:26;23.97;;;12.70;;
6821;SDS011;3449;48.728;8.968;2023-02-15T07:43:54;22.83;;;11.30;;
6821;SDS011;3449;48.728;8.968;2023-02-15T07:46:21;29.63;;;13.00;;
6821;SDS011;3449;48.728;8.968;2023-02-15T07:48:48;27.27;;;12.60;;
6821;SDS011;3449;48.728;8.968;2023-02-15T07:51:15;29.17;;;11.53;;
6821;SDS011;3449;48.728;8.968;2023-02-15T07:53:42;20.97;;;11.10;;
6821;SDS011;3449;48.728;8.968;2023-02-15T07:56:10;23.23;;;11.23;;
6821;SDS011;3449;48.728;8.968;2023-02-15T07:58:38;22.83;;;10.87;;
6821;SDS011;3449;48.728;8.968;2023-02-15T08:01:20;15.67;;;8.60;;
6821;SDS011;3449;48.728;8.968;2023-02-15T08:03:49;16.70;;;9.23;;
6821;SDS011;3449;48.728;8.968;2023-02-15T08:06:16;21.63;;;9.57;;
6821;SDS011;3449;48.728;8.968;2023-02-15T08:08:44;18.43;;;9.17;;
6821;SDS011;3449;48.728;8.968;2023-02-15T08:11:14;19.23;;;9.13;;
6821;SDS011;3449;48.728;8.968;2023-02-15T08:13:54;20.47;;;9.53;;
6821;SDS011;3449;48.728;8.968;2023-02-15T08:16:30;21.53;;;10.47;;
6821;SDS011;3449;48.728;8.968;2023-02-15T08:18:58;16.17;;;8.57;;
6821;SDS011;3449;48.728;8.968;2023-02-15T08:21:27;16.30;;;9.10;;
6821;SDS011;3449;48.728;8.968;2023-02-15T08:23:55;18.77;;;8.13;;
6821;SDS011;3449;48.728;8.968;2023-02-15T08:26:23;20.33;;;8.07;;
6821;SDS011;3449;48.728;8.968;2023-02-15T08:28:51;25.93;;;8.87;;
6821;SDS011;3449;48.728;8.968;2023-02-15T08:31:18;19.63;;;8.87;;
6821;SDS011;3449;48.728;8.968;2023-02-15T08:33:46;17.40;;;8.30;;
6821;SDS011;3449;48.728;8.968;2023-02-15T08:36:15;17.33;;;7.30;;
6821;SDS011;3449;48.728;8.968;2023-02-15T08:38:43;17.63;;;7.73;;
6821;SDS011;3449;48.728;8.968;2023-02-15T08:41:12;16.17;;;7.70;;
6821;SDS011;3449;48.728;8.968;2023-02-15T08:43:40;14.43;;;7.90;;
6821;SDS011;3449;48.728;8.968;2023-02-15T08:46:07;17.03;;;8.53;;
6821;SDS011;3449;48.728;8.968;2023-02-15T08:48:35;21.43;;;9.13;;
6821;SDS011;3449;48.728;8.968;2023-02-15T08:51:07;14.20;;;8.20;;
6821;SDS011;3449;48.728;8.968;2023-02-15T08:53:36;15.03;;;8.13;;
6821;SDS011;3449;48.728;8.968;2023-02-15T08:56:04;15.73;;;7.67;;
6821;SDS011;3449;48.728;8.968;2023-02-15T08:58:31;19.87;;;7.27;;
6821;SDS011;3449;48.728;8.968;2023-02-15T09:00:58;14.90;;;6.77;;
6821;SDS011;3449;48.728;8.968;2023-02-15T09:03:27;16.73;;;8.20;;
6821;SDS011;3449;48.728;8.968;2023-02-15T09:05:58;19.70;;;7.90;;
6821;SDS011;3449;48.728;8.968;2023-02-15T09:08:27;15.40;;;7.60;;
6821;SDS011;3449;48.728;8.968;2023-02-15T09:10:54;15.10;;;8.47;;
6821;SDS011;3449;48.728;8.968;2023-02-15T09:13:30;15.80;;;7.90;;
6821;SDS011;3449;48.728;8.968;2023-02-15T09:15:58;14.83;;;7.97;;
6821;SDS011;3449;48.728;8.968;2023-02-15T09:18:26;14.50;;;7.77;;
6821;SDS011;3449;48.728;8.968;2023-02-15T09:20:53;13.93;;;7.33;;
6821;SDS011;3449;48.728;8.968;2023-02-15T09:23:20;9.87;;;5.60;;
6821;SDS011;3449;48.728;8.968;2023-02-15T09:25:48;12.60;;;7.47;;
6821;SDS011;3449;48.728;8.968;2023-02-15T09:28:15;13.27;;;7.17;;
6821;SDS011;3449;48.728;8.968;2023-02-15T09:30:42;12.10;;;6.33;;
6821;SDS011;3449;48.728;8.968;2023-02-15T09:33:09;12.40;;;6.27;;
6821;SDS011;3449;48.728;8.968;2023-02-15T09:35:36;12.07;;;5.87;;
6821;SDS011;3449;48.728;8.968;2023-02-15T09:38:03;11.50;;;7.10;;
6821;SDS011;3449;48.728;8.968;2023-02-15T09:40:30;21.37;;;7.70;;
6821;SDS011;3449;48.728;8.968;2023-02-15T09:43:17;10.73;;;6.40;;
6821;SDS011;3449;48.728;8.968;2023-02-15T09:46:01;13.40;;;6.87;;
6821;SDS011;3449;48.728;8.968;2023-02-15T09:48:40;10.27;;;5.93;;
6821;SDS011;3449;48.728;8.968;2023-02-15T09:54:08;12.20;;;6.43;;
6821;SDS011;3449;48.728;8.968;2023-02-15T09:56:48;12.87;;;6.43;;
6821;SDS011;3449;48.728;8.968;2023-02-15T09:59:21;12.70;;;6.40;;
6821;SDS011;3449;48.728;8.968;2023-02-15T10:01:58;11.47;;;6.20;;
6821;SDS011;3449;48.728;8.968;2023-02-15T10:04:42;14.43;;;6.33;;
6821;SDS011;3449;48.728;8.968;2023-02-15T10:07:29;7.67;;;5.20;;
6821;SDS011;3449;48.728;8.968;2023-02-15T10:10:11;8.10;;;5.30;;
6821;SDS011;3449;48.728;8.968;2023-02-15T10:12:57;12.60;;;5.40;;
6821;SDS011;3449;48.728;8.968;2023-02-15T10:15:43;10.47;;;5.50;;
6821;SDS011;3449;48.728;8.968;2023-02-15T10:18:38;11.93;;;6.53;;
6821;SDS011;3449;48.728;8.968;2023-02-15T10:21:17;8.80;;;5.60;;
6821;SDS011;3449;48.728;8.968;2023-02-15T10:24:04;9.63;;;5.53;;
6821;SDS011;3449;48.728;8.968;2023-02-15T10:26:42;15.30;;;6.47;;
6821;SDS011;3449;48.728;8.968;2023-02-15T10:29:12;9.10;;;4.73;;
6821;SDS011;3449;48.728;8.968;2023-02-15T10:31:51;8.27;;;4.97;;
6821;SDS011;3449;48.728;8.968;2023-02-15T10:34:23;11.93;;;5.70;;
6821;SDS011;3449;48.728;8.968;2023-02-15T10:37:01;8.40;;;4.97;;
6821;SDS011;3449;48.728;8.968;2023-02-15T10:39:40;11.50;;;6.30;;
6821;SDS011;3449;48.728;8.968;2023-02-15T10:42:16;14.77;;;5.90;;
6821;SDS011;3449;48.728;8.968;2023-02-15T10:44:55;9.63;;;5.87;;
6821;SDS011;3449;48.728;8.968;2023-02-15T10:47:37;10.53;;;5.60;;
6821;SDS011;3449;48.728;8.968;2023-02-15T10:50:21;14.03;;;5.77;;
6821;SDS011;3449;48.728;8.968;2023-02-15T10:53:02;7.97;;;5.50;;
6821;SDS011;3449;48.728;8.968;2023-02-15T10:55:42;15.20;;;6.10;;
6821;SDS011;3449;48.728;8.968;2023-02-15T10:58:17;11.00;;;5.17;;
6821;SDS011;3449;48.728;8.968;2023-02-15T11:00:52;18.93;;;7.17;;
6821;SDS011;3449;48.728;8.968;2023-02-15T11:06:21;12.70;;;5.80;;
6821;SDS011;3449;48.728;8.968;2023-02-15T11:08:54;9.10;;;5.33;;
6821;SDS011;3449;48.728;8.968;2023-02-15T11:11:24;14.23;;;4.70;;
6821;SDS011;3449;48.728;8.968;2023-02-15T11:13:56;7.90;;;4.63;;
6821;SDS011;3449;48.728;8.968;2023-02-15T11:16:27;8.37;;;4.37;;
6821;SDS011;3449;48.728;8.968;2023-02-15T11:18:59;9.87;;;4.53;;
6821;SDS011;3449;48.728;8.968;2023-02-15T11:21:32;9.40;;;4.50;;
6821;SDS011;3449;48.728;8.968;2023-02-15T11:24:07;8.00;;;4.50;;
6821;SDS011;3449;48.728;8.968;2023-02-15T11:26:37;5.57;;;3.57;;
6821;SDS011;3449;48.728;8.968;2023-02-15T11:29:07;7.67;;;4.53;;
6821;SDS011;3449;48.728;8.968;2023-02-15T11:31:41;6.50;;;4.37;;
6821;SDS011;3449;48.728;8.968;2023-02-15T11:34:13;10.77;;;4.70;;
6821;SDS011;3449;48.728;8.968;2023-02-15T11:36:46;14.33;;;4.27;;
6821;SDS011;3449;48.728;8.968;2023-02-15T11:39:16;6.93;;;4.30;;
6821;SDS011;3449;48.728;8.968;2023-02-15T11:41:44;5.63;;;3.03;;
6821;SDS011;3449;48.728;8.968;2023-02-15T11:44:17;5.70;;;3.10;;
6821;SDS011;3449;48.728;8.968;2023-02-15T11:46:48;8.67;;;3.37;;
6821;SDS011;3449;48.728;8.968;2023-02-15T11:49:21;6.17;;;4.00;;
6821;SDS011;3449;48.728;8.968;2023-02-15T11:51:49;4.53;;;3.70;;
6821;SDS011;3449;48.728;8.968;2023-02-15T11:54:18;6.53;;;3.20;;
6821;SDS011;3449;48.728;8.968;2023-02-15T11:56:47;6.70;;;4.07;;
6821;SDS011;3449;48.728;8.968;2023-02-15T11:59:16;6.50;;;3.70;;
6821;SDS011;3449;48.728;8.968;2023-02-15T12:01:53;8.13;;;3.67;;
6821;SDS011;3449;48.728;8.968;2023-02-15T12:04:22;6.00;;;2.80;;
6821;SDS011;3449;48.728;8.968;2023-02-15T12:06:53;4.13;;;3.20;;
6821;SDS011;3449;48.728;8.968;2023-02-15T12:09:26;3.70;;;2.30;;
6821;SDS011;3449;48.728;8.968;2023-02-15T12:14:47;4.90;;;2.73;;
6821;SDS011;3449;48.728;8.968;2023-02-15T12:17:15;3.73;;;3.00;;
6821;SDS011;3449;48.728;8.968;2023-02-15T12:19:44;2.97;;;2.23;;
6821;SDS011;3449;48.728;8.968;2023-02-15T12:22:18;2.80;;;2.20;;
6821;SDS011;3449;48.728;8.968;2023-02-15T12:24:48;4.80;;;2.30;;
6821;SDS011;3449;48.728;8.968;2023-02-15T12:27:17;7.57;;;2.40;;
6821;SDS011;3449;48.728;8.968;2023-02-15T12:29:47;4.27;;;2.50;;
6821;SDS011;3449;48.728;8.968;2023-02-15T12:32:17;5.07;;;2.70;;
6821;SDS011;3449;48.728;8.968;2023-02-15T12:34:49;3.00;;;2.30;;
6821;SDS011;3449;48.728;8.968;2023-02-15T12:37:19;11.77;;;3.03;;
6821;SDS011;3449;48.728;8.968;2023-02-15T12:39:52;3.37;;;1.97;;
6821;SDS011;3449;48.728;8.968;2023-02-15T12:42:21;3.20;;;2.90;;
6821;SDS011;3449;48.728;8.968;2023-02-15T12:44:56;3.50;;;2.97;;
6821;SDS011;3449;48.728;8.968;2023-02-15T12:47:25;4.43;;;2.47;;
6821;SDS011;3449;48.728;8.968;2023-02-15T12:50:08;2.97;;;2.57;;
6821;SDS011;3449;48.728;8.968;2023-02-15T12:52:43;8.90;;;3.10;;
6821;SDS011;3449;48.728;8.968;2023-02-15T12:55:17;3.20;;;2.43;;
6821;SDS011;3449;48.728;8.968;2023-02-15T12:57:46;5.10;;;2.93;;
6821;SDS011;3449;48.728;8.968;2023-02-15T13:00:25;4.30;;;2.97;;
6821;SDS011;3449;48.728;8.968;2023-02-15T13:02:57;4.57;;;3.60;;
6821;SDS011;3449;48.728;8.968;2023-02-15T13:05:28;4.40;;;2.70;;
6821;SDS011;3449;48.728;8.968;2023-02-15T13:07:59;4.30;;;3.23;;
6821;SDS011;3449;48.728;8.968;2023-02-15T13:10:30;4.87;;;3.17;;
6821;SDS011;3449;48.728;8.968;2023-02-15T13:13:00;3.63;;;3.30;;
6821;SDS011;3449;48.728;8.968;2023-02-15T13:15:32;10.40;;;4.80;;
6821;SDS011;3449;48.728;8.968;2023-02-15T13:18:02;8.00;;;4.77;;
6821;SDS011;3449;48.728;8.968;2023-02-15T13:20:32;10.83;;;5.80;;
6821;SDS011;3449;48.728;8.968;2023-02-15T13:23:05;8.50;;;6.10;;
6821;SDS011;3449;48.728;8.968;2023-02-15T13:25:44;11.20;;;5.47;;
6821;SDS011;3449;48.728;8.968;2023-02-15T13:28:16;10.80;;;5.60;;
6821;SDS011;3449;48.728;8.968;2023-02-15T13:30:49;9.90;;;5.23;;
6821;SDS011;3449;48.728;8.968;2023-02-15T13:33:17;9.73;;;6.43;;
6821;SDS011;3449;48.728;8.968;2023-02-15T13:35:55;11.07;;;6.37;;
6821;SDS011;3449;48.728;8.968;2023-02-15T13:38:34;10.67;;;6.87;;
6821;SDS011;3449;48.728;8.968;2023-02-15T13:41:27;12.03;;;7.43;;
6821;SDS011;3449;48.728;8.968;2023-02-15T13:44:01;10.37;;;6.10;;
6821;SDS011;3449;48.728;8.968;2023-02-15T13:46:40;10.37;;;7.40;;
6821;SDS011;3449;48.728;8.968;2023-02-15T13:49:33;22.43;;;8.43;;
6821;SDS011;3449;48.728;8.968;2023-02-15T13:52:13;11.23;;;7.40;;
6821;SDS011;3449;48.728;8.968;2023-02-15T13:55:03;13.10;;;7.00;;
6821;SDS011;3449;48.728;8.968;2023-02-15T13:57:55;15.13;;;7.00;;
6821;SDS011;3449;48.728;8.968;2023-02-15T14:00:40;14.43;;;6.60;;
6821;SDS011;3449;48.728;8.968;2023-02-15T14:06:13;11.10;;;6.40;;
6821;SDS011;3449;48.728;8.968;2023-02-15T14:08:54;10.13;;;5.83;;
6821;SDS011;3449;48.728;8.968;2023-02-15T14:11:34;11.53;;;7.03;;
6821;SDS011;3449;48.728;8.968;2023-02-15T14:14:26;9.30;;;6.50;;
6821;SDS011;3449;48.728;8.968;2023-02-15T14:17:07;13.70;;;6.20;;
6821;SDS011;3449;48.728;8.968;2023-02-15T14:19:44;14.43;;;6.00;;
6821;SDS011;3449;48.728;8.968;2023-02-15T14:22:17;11.53;;;7.57;;
6821;SDS011;3449;48.728;8.968;2023-02-15T14:24:53;20.60;;;12.70;;
6821;SDS011;3449;48.728;8.968;2023-02-15T14:27:34;10.73;;;7.30;;
6821;SDS011;3449;48.728;8.968;2023-02-15T14:30:13;13.43;;;7.10;;
6821;SDS011;3449;48.728;8.968;2023-02-15T14:32:43;13.10;;;7.80;;
6821;SDS011;3449;48.728;8.968;2023-02-15T14:35:13;17.37;;;8.30;;
6821;SDS011;3449;48.728;8.968;2023-02-15T14:37:43;13.07;;;7.43;;
6821;SDS011;3449;48.728;8.968;2023-02-15T14:40:18;15.30;;;6.93;;
6821;SDS011;3449;48.728;8.968;2023-02-15T14:43:14;15.37;;;7.23;;
6821;SDS011;3449;48.728;8.968;2023-02-15T14:45:48;13.13;;;7.83;;
6821;SDS011;3449;48.728;8.968;2023-02-15T14:48:19;15.43;;;7.97;;
6821;SDS011;3449;48.728;8.968;2023-02-15T14:50:50;11.30;;;6.67;;
6821;SDS011;3449;48.728;8.968;2023-02-15T14:53:22;17.60;;;7.67;;
6821;SDS011;3449;48.728;8.968;2023-02-15T14:56:23;15.40;;;7.97;;
6821;SDS011;3449;48.728;8.968;2023-02-15T14:58:58;17.90;;;8.70;;
6821;SDS011;3449;48.728;8.968;2023-02-15T15:01:41;23.30;;;10.30;;
6821;SDS011;3449;48.728;8.968;2023-02-15T15:04:21;19.47;;;10.13;;
6821;SDS011;3449;48.728;8.968;2023-02-15T15:06:57;23.37;;;12.77;;
6821;SDS011;3449;48.728;8.968;2023-02-15T15:09:35;22.67;;;11.03;;
6821;SDS011;3449;48.728;8.968;2023-02-15T15:12:14;22.80;;;10.70;;
6821;SDS011;3449;48.728;8.968;2023-02-15T15:14:56;22.80;;;11.40;;
6821;SDS011;3449;48.728;8.968;2023-02-15T15:26:20;26.87;;;13.80;;
6821;SDS011;3449;48.728;8.968;2023-02-15T15:28:54;22.63;;;13.13;;
6821;SDS011;3449;48.728;8.968;2023-02-15T15:31:34;24.20;;;13.03;;
6821;SDS011;3449;48.728;8.968;2023-02-15T15:37:38;28.43;;;12.17;;
6821;SDS011;3449;48.728;8.968;2023-02-15T15:43:41;24.10;;;13.30;;
6821;SDS011;3449;48.728;8.968;2023-02-15T15:46:50;24.30;;;13.97;;
6821;SDS011;3449;48.728;8.968;2023-02-15T15:49:31;23.77;;;11.77;;
6821;SDS011;3449;48.728;8.968;2023-02-15T15:52:00;28.53;;;13.63;;
6821;SDS011;3449;48.728;8.968;2023-02-15T15:54:28;26.50;;;13.17;;
6821;SDS011;3449;48.728;8.968;2023-02-15T15:56:56;28.40;;;11.80;;
6821;SDS011;3449;48.728;8.968;2023-02-15T15:59:29;25.43;;;13.20;;